createdAt,value
2022-07-25T00:00:02.675Z,17.00
2022-07-25T00:02:30.204Z,17.00
2022-07-25T00:04:57.275Z,17.00
2022-07-25T00:07:25.231Z,17.00
2022-07-25T00:09:53.389Z,17.00
2022-07-25T00:12:20.604Z,17.00
2022-07-25T00:14:48.100Z,17.10
2022-07-25T00:17:15.313Z,17.10
2022-07-25T00:19:42.447Z,17.10
2022-07-25T00:22:09.517Z,17.20
2022-07-25T00:24:36.395Z,17.20
2022-07-25T00:27:03.698Z,17.30
2022-07-25T00:29:30.901Z,17.30
2022-07-25T00:31:57.796Z,17.30
2022-07-25T00:34:24.827Z,17.30
2022-07-25T00:36:51.920Z,17.30
2022-07-25T00:39:18.886Z,17.40
2022-07-25T00:41:45.828Z,17.40
2022-07-25T00:44:24.688Z,17.40
2022-07-25T00:46:52.137Z,17.40
2022-07-25T00:49:19.386Z,17.50
2022-07-25T00:51:46.559Z,17.40
2022-07-25T00:54:13.908Z,17.50
2022-07-25T00:56:40.845Z,17.50
2022-07-25T00:59:07.995Z,17.50
2022-07-25T01:01:35.503Z,17.60
2022-07-25T01:04:03.051Z,17.60
2022-07-25T01:06:30.267Z,17.60
2022-07-25T01:08:57.181Z,17.70
2022-07-25T01:11:24.326Z,17.70
2022-07-25T01:13:51.556Z,17.70
2022-07-25T01:16:18.617Z,17.70
2022-07-25T01:18:45.685Z,17.70
2022-07-25T01:21:12.587Z,17.80
2022-07-25T01:23:39.521Z,17.70
2022-07-25T01:26:06.406Z,17.80
2022-07-25T01:28:33.293Z,17.80
2022-07-25T01:31:00.282Z,17.80
2022-07-25T01:33:27.268Z,17.80
2022-07-25T01:35:54.131Z,17.80
2022-07-25T01:38:21.095Z,17.80
2022-07-25T01:40:48.092Z,17.80
2022-07-25T01:43:15.080Z,17.80
2022-07-25T01:45:42.024Z,17.80
2022-07-25T01:48:09.228Z,17.80
2022-07-25T01:50:36.191Z,17.80
2022-07-25T01:53:03.539Z,17.80
2022-07-25T01:55:30.443Z,17.80
2022-07-25T01:57:58.599Z,17.90
2022-07-25T02:00:26.675Z,17.90
2022-07-25T02:03:12.146Z,17.90
2022-07-25T02:05:39.139Z,17.90
2022-07-25T02:08:06.146Z,17.90
2022-07-25T02:10:33.123Z,17.90
2022-07-25T02:13:00.957Z,17.90
2022-07-25T02:15:28.015Z,17.80
2022-07-25T02:17:54.892Z,17.80
2022-07-25T02:20:21.822Z,17.80
2022-07-25T02:22:48.800Z,17.80
2022-07-25T02:25:15.725Z,17.80
2022-07-25T02:27:42.699Z,17.80
2022-07-25T02:30:09.826Z,17.80
2022-07-25T02:32:36.730Z,17.80
2022-07-25T02:35:04.140Z,17.70
2022-07-25T02:37:40.212Z,17.70
2022-07-25T02:40:07.635Z,17.70
2022-07-25T02:42:34.580Z,17.70
2022-07-25T02:45:01.793Z,17.70
2022-07-25T02:47:28.787Z,17.70
2022-07-25T02:49:55.786Z,17.70
2022-07-25T02:52:22.772Z,17.60
2022-07-25T02:54:50.874Z,17.70
2022-07-25T02:57:17.851Z,17.60
2022-07-25T02:59:44.926Z,17.70
2022-07-25T03:02:11.865Z,17.70
2022-07-25T03:04:38.938Z,17.70
2022-07-25T03:07:05.926Z,17.70
2022-07-25T03:09:32.862Z,17.70
2022-07-25T03:11:59.862Z,17.70
2022-07-25T03:14:27.039Z,17.70
2022-07-25T03:16:53.949Z,17.60
2022-07-25T03:19:21.240Z,17.70
2022-07-25T03:21:48.202Z,17.60
2022-07-25T03:24:15.066Z,17.70
2022-07-25T03:26:42.057Z,17.70
2022-07-25T03:29:09.157Z,17.70
2022-07-25T03:31:36.344Z,17.70
2022-07-25T03:34:03.553Z,17.70
2022-07-25T03:36:30.557Z,17.70
2022-07-25T03:38:57.878Z,17.70
2022-07-25T03:41:24.796Z,17.80
2022-07-25T03:43:54.905Z,17.80
2022-07-25T03:46:21.955Z,17.80
2022-07-25T03:48:49.053Z,17.80
2022-07-25T03:51:16.027Z,17.80
2022-07-25T03:54:15.297Z,17.80
2022-07-25T03:56:47.557Z,17.80
2022-07-25T03:59:15.535Z,17.80
2022-07-25T04:01:43.082Z,17.90
2022-07-25T04:04:10.420Z,17.90
2022-07-25T04:06:38.237Z,17.90
2022-07-25T04:09:05.480Z,17.90
2022-07-25T04:11:32.805Z,17.90
2022-07-25T04:13:59.704Z,18.00
2022-07-25T04:16:27.979Z,18.00
2022-07-25T04:18:55.426Z,18.00
2022-07-25T04:21:23.544Z,18.00
2022-07-25T04:23:50.599Z,18.10
2022-07-25T04:26:18.050Z,18.10
2022-07-25T04:28:45.166Z,18.10
2022-07-25T04:31:12.275Z,18.10
2022-07-25T04:33:40.093Z,18.10
2022-07-25T04:36:07.074Z,18.10
2022-07-25T04:38:34.943Z,18.10
2022-07-25T04:41:01.933Z,18.20
2022-07-25T04:43:29.000Z,18.20
2022-07-25T04:45:56.029Z,18.30
2022-07-25T04:48:23.046Z,18.30
2022-07-25T04:50:50.435Z,18.30
2022-07-25T04:53:17.318Z,18.30
2022-07-25T04:55:44.232Z,18.30
2022-07-25T04:58:11.308Z,18.30
2022-07-25T05:00:38.355Z,18.20
2022-07-25T05:03:05.473Z,18.30
2022-07-25T05:05:32.772Z,18.30
2022-07-25T05:08:00.174Z,18.30
2022-07-25T05:10:28.715Z,18.30
2022-07-25T05:12:55.842Z,18.30
2022-07-25T05:15:23.254Z,18.30
2022-07-25T05:17:50.172Z,18.30
2022-07-25T05:20:17.175Z,18.30
2022-07-25T05:22:44.203Z,18.30
2022-07-25T05:25:11.740Z,18.40
2022-07-25T05:27:39.434Z,18.30
2022-07-25T05:30:07.169Z,18.30
2022-07-25T05:32:34.321Z,18.30
2022-07-25T05:35:01.461Z,18.30
2022-07-25T05:37:28.369Z,18.30
2022-07-25T05:39:55.311Z,18.30
2022-07-25T05:42:22.327Z,18.30
2022-07-25T05:44:49.456Z,18.30
2022-07-25T05:47:16.504Z,18.40
2022-07-25T05:49:43.444Z,18.40
2022-07-25T05:52:13.091Z,18.40
2022-07-25T05:54:40.497Z,18.50
2022-07-25T05:57:07.422Z,18.50
2022-07-25T05:59:34.367Z,18.50
2022-07-25T06:02:01.836Z,18.60
2022-07-25T06:04:28.885Z,18.70
2022-07-25T06:06:56.205Z,18.80
2022-07-25T06:09:23.514Z,18.90
2022-07-25T06:11:57.731Z,19.00
2022-07-25T06:14:27.173Z,19.10
2022-07-25T06:16:55.520Z,19.20
2022-07-25T06:19:22.751Z,19.40
2022-07-25T06:21:49.843Z,19.50
2022-07-25T06:24:16.849Z,19.60
2022-07-25T06:26:43.791Z,19.70
2022-07-25T06:29:10.887Z,19.90
2022-07-25T06:31:37.873Z,20.10
2022-07-25T06:34:05.205Z,20.10
2022-07-25T06:36:33.025Z,20.20
2022-07-25T06:39:00.461Z,20.30
2022-07-25T06:41:27.339Z,20.40
2022-07-25T06:43:54.469Z,20.40
2022-07-25T06:46:21.523Z,20.50
2022-07-25T06:48:48.615Z,20.60
2022-07-25T06:51:15.681Z,20.60
2022-07-25T06:53:42.658Z,20.60
2022-07-25T06:56:12.190Z,20.70
2022-07-25T06:58:41.319Z,20.80
2022-07-25T07:01:08.349Z,20.90
2022-07-25T07:03:38.482Z,21.00
2022-07-25T07:06:06.407Z,21.00
2022-07-25T07:08:33.858Z,21.00
2022-07-25T07:11:01.534Z,21.10
2022-07-25T07:13:28.470Z,21.10
2022-07-25T07:15:56.034Z,21.10
2022-07-25T07:18:23.551Z,21.10
2022-07-25T07:20:52.027Z,21.00
2022-07-25T07:23:18.958Z,21.00
2022-07-25T07:25:47.265Z,20.90
2022-07-25T07:28:14.792Z,20.80
2022-07-25T07:31:14.452Z,20.80
2022-07-25T07:33:28.877Z,20.80
2022-07-25T07:35:57.245Z,20.80
2022-07-25T07:38:24.673Z,20.70
2022-07-25T07:40:51.849Z,20.70
2022-07-25T07:43:18.720Z,20.60
2022-07-25T07:45:45.906Z,20.60
2022-07-25T07:48:12.847Z,20.60
2022-07-25T07:50:40.435Z,20.70
2022-07-25T07:53:07.441Z,20.60
2022-07-25T07:55:48.308Z,20.50
2022-07-25T07:58:16.364Z,20.40
2022-07-25T08:00:44.005Z,20.40
2022-07-25T08:03:11.118Z,20.40
2022-07-25T08:05:39.719Z,20.40
2022-07-25T08:08:07.508Z,20.30
2022-07-25T08:10:36.565Z,20.30
2022-07-25T08:13:12.364Z,20.20
2022-07-25T08:15:39.375Z,20.20
2022-07-25T08:18:17.005Z,20.20
2022-07-25T08:20:45.109Z,20.10
2022-07-25T08:23:11.992Z,20.10
2022-07-25T08:25:39.530Z,20.20
2022-07-25T08:28:06.749Z,20.20
2022-07-25T08:30:34.989Z,20.20
2022-07-25T08:33:06.438Z,20.10
2022-07-25T08:35:34.357Z,20.20
2022-07-25T08:38:01.904Z,20.30
2022-07-25T08:40:29.936Z,20.30
2022-07-25T08:42:58.534Z,20.30
2022-07-25T08:45:26.974Z,20.30
2022-07-25T08:47:55.323Z,20.30
2022-07-25T08:50:23.590Z,20.30
2022-07-25T08:53:04.636Z,20.30
2022-07-25T08:55:39.606Z,20.30
2022-07-25T08:58:06.637Z,20.30
2022-07-25T09:00:33.565Z,20.40
2022-07-25T09:03:01.501Z,20.40
2022-07-25T09:05:30.461Z,20.40
2022-07-25T09:07:57.973Z,20.40
2022-07-25T09:10:26.832Z,20.40
2022-07-25T09:12:57.728Z,20.50
2022-07-25T09:15:25.625Z,20.50
2022-07-25T09:17:53.810Z,20.60
2022-07-25T09:20:21.707Z,20.60
2022-07-25T09:22:48.847Z,20.50
2022-07-25T09:25:26.043Z,20.60
2022-07-25T09:27:53.247Z,20.60
2022-07-25T09:30:20.666Z,20.60
2022-07-25T09:32:47.601Z,20.70
2022-07-25T09:35:14.557Z,20.80
2022-07-25T09:37:41.511Z,20.70
2022-07-25T09:40:19.920Z,20.70
2022-07-25T09:42:50.519Z,20.70
2022-07-25T09:45:17.611Z,20.70
2022-07-25T09:47:53.484Z,20.70
2022-07-25T09:50:21.951Z,20.60
2022-07-25T09:52:50.664Z,20.70
2022-07-25T09:55:17.715Z,20.70
2022-07-25T09:57:47.681Z,20.80
2022-07-25T10:00:19.372Z,20.80
2022-07-25T10:02:49.737Z,20.80
2022-07-25T10:05:16.811Z,20.80
2022-07-25T10:07:45.835Z,20.80
2022-07-25T10:10:24.319Z,20.80
2022-07-25T10:13:04.120Z,20.70
2022-07-25T10:15:59.799Z,20.70
2022-07-25T10:18:28.203Z,20.60
2022-07-25T10:20:56.448Z,20.70
2022-07-25T10:23:23.506Z,20.60
2022-07-25T10:26:00.377Z,20.70
2022-07-25T10:28:36.617Z,20.70
2022-07-25T10:31:04.060Z,20.70
2022-07-25T10:33:41.346Z,20.60
2022-07-25T10:36:08.646Z,20.70
2022-07-25T10:38:35.664Z,20.60
2022-07-25T10:41:04.420Z,20.60
2022-07-25T10:43:36.889Z,20.60
2022-07-25T10:46:10.807Z,20.60
2022-07-25T10:48:38.129Z,20.70
2022-07-25T10:51:09.577Z,20.80
2022-07-25T10:53:38.678Z,20.80
2022-07-25T10:56:06.653Z,20.90
2022-07-25T10:58:47.961Z,20.90
2022-07-25T11:01:15.835Z,20.90
2022-07-25T11:03:45.888Z,21.00
2022-07-25T11:06:15.246Z,21.10
2022-07-25T11:08:43.125Z,21.20
2022-07-25T11:11:10.919Z,21.20
2022-07-25T11:13:38.714Z,21.30
2022-07-25T11:16:06.112Z,21.30
2022-07-25T11:18:34.345Z,21.50
2022-07-25T11:21:06.195Z,21.50
2022-07-25T11:23:33.940Z,21.50
2022-07-25T11:26:18.966Z,21.50
2022-07-25T11:28:47.782Z,21.50
2022-07-25T11:31:15.439Z,21.50
2022-07-25T11:33:43.486Z,21.50
2022-07-25T11:36:11.078Z,21.50
2022-07-25T11:38:39.111Z,21.60
2022-07-25T11:41:06.723Z,21.60
2022-07-25T11:43:33.820Z,21.60
2022-07-25T11:46:02.472Z,21.40
2022-07-25T11:48:31.416Z,21.40
2022-07-25T11:50:58.406Z,21.10
2022-07-25T11:53:26.466Z,21.20
2022-07-25T11:55:54.062Z,21.10
2022-07-25T11:58:23.599Z,21.10
2022-07-25T12:00:50.800Z,20.90
2022-07-25T12:03:20.391Z,20.80
2022-07-25T12:05:48.627Z,20.70
2022-07-25T12:08:16.584Z,20.60
2022-07-25T12:10:44.205Z,20.50
2022-07-25T12:13:21.739Z,20.50
2022-07-25T12:15:48.720Z,20.40
2022-07-25T12:18:15.884Z,20.30
2022-07-25T12:20:43.674Z,20.20
2022-07-25T12:23:12.138Z,20.30
2022-07-25T12:25:40.346Z,20.30
2022-07-25T12:28:08.330Z,20.20
2022-07-25T12:30:35.450Z,20.10
2022-07-25T12:33:02.319Z,20.20
2022-07-25T12:35:29.333Z,20.20
2022-07-25T12:37:56.259Z,20.20
2022-07-25T12:40:24.063Z,20.20
2022-07-25T12:42:51.168Z,20.20
2022-07-25T12:45:18.238Z,20.20
2022-07-25T12:47:45.947Z,20.20
2022-07-25T12:50:13.769Z,20.20
2022-07-25T12:52:41.239Z,20.20
2022-07-25T12:55:09.162Z,20.20
2022-07-25T12:57:36.447Z,20.20
2022-07-25T13:00:08.193Z,20.10
2022-07-25T13:02:35.752Z,20.20
2022-07-25T13:05:02.751Z,20.30
2022-07-25T13:07:30.032Z,20.30
2022-07-25T13:09:56.941Z,20.30
2022-07-25T13:12:24.594Z,20.30
2022-07-25T13:14:51.729Z,20.20
2022-07-25T13:17:21.379Z,20.20
2022-07-25T13:19:52.226Z,20.10
2022-07-25T13:22:19.170Z,20.10
2022-07-25T13:24:46.059Z,20.10
2022-07-25T13:27:12.991Z,20.10
2022-07-25T13:29:39.983Z,20.20
2022-07-25T13:32:07.671Z,20.20
2022-07-25T13:34:34.705Z,20.30
2022-07-25T13:37:02.070Z,20.30
2022-07-25T13:39:29.062Z,20.30
2022-07-25T13:41:56.018Z,20.40
2022-07-25T13:44:23.011Z,20.40
2022-07-25T13:46:50.500Z,20.50
2022-07-25T13:49:18.002Z,20.50
2022-07-25T13:51:45.751Z,20.50
2022-07-25T13:54:13.030Z,20.60
2022-07-25T13:56:41.558Z,20.70
2022-07-25T13:59:08.775Z,20.70
2022-07-25T14:01:36.283Z,20.70
2022-07-25T14:04:03.236Z,20.80
2022-07-25T14:06:30.181Z,20.80
2022-07-25T14:08:57.130Z,20.90
2022-07-25T14:11:28.679Z,20.90
2022-07-25T14:13:57.865Z,21.00
2022-07-25T14:16:26.351Z,20.90
2022-07-25T14:18:55.087Z,21.00
2022-07-25T14:21:22.009Z,21.00
2022-07-25T14:23:49.190Z,21.00
2022-07-25T14:26:16.167Z,21.00
2022-07-25T14:28:43.740Z,20.90
2022-07-25T14:31:11.735Z,21.00
2022-07-25T14:33:40.207Z,20.90
2022-07-25T14:36:07.911Z,20.90
2022-07-25T14:38:34.885Z,20.90
2022-07-25T14:41:01.834Z,20.90
2022-07-25T14:43:28.947Z,20.90
2022-07-25T14:45:55.870Z,21.00
2022-07-25T14:48:22.867Z,21.10
2022-07-25T14:50:49.765Z,21.10
2022-07-25T14:53:16.709Z,21.20
2022-07-25T14:55:43.627Z,21.20
2022-07-25T14:58:10.495Z,21.30
2022-07-25T15:00:41.837Z,21.30
2022-07-25T15:03:09.733Z,21.30
2022-07-25T15:05:36.793Z,21.30
2022-07-25T15:08:03.788Z,21.30
2022-07-25T15:10:30.773Z,21.30
2022-07-25T15:13:20.514Z,21.30
2022-07-25T15:15:44.842Z,21.40
2022-07-25T15:18:13.994Z,21.40
2022-07-25T15:20:41.220Z,21.40
2022-07-25T15:23:08.208Z,21.40
2022-07-25T15:26:00.655Z,21.40
2022-07-25T15:28:22.101Z,21.40
2022-07-25T15:30:50.370Z,21.40
2022-07-25T15:33:18.429Z,21.40
2022-07-25T15:35:46.711Z,21.30
2022-07-25T15:38:14.238Z,21.30
2022-07-25T15:40:41.788Z,21.20
2022-07-25T15:43:08.803Z,21.20
2022-07-25T15:45:40.180Z,21.10
2022-07-25T15:48:08.923Z,21.10
2022-07-25T15:50:36.471Z,21.10
2022-07-25T15:53:03.998Z,21.10
2022-07-25T15:55:31.345Z,20.90
2022-07-25T15:57:58.899Z,20.90
2022-07-25T16:00:29.383Z,20.90
2022-07-25T16:02:56.998Z,20.90
2022-07-25T16:05:24.141Z,20.80
2022-07-25T16:07:51.058Z,20.80
2022-07-25T16:10:18.440Z,20.70
2022-07-25T16:12:45.375Z,20.70
2022-07-25T16:15:12.239Z,20.70
2022-07-25T16:17:39.749Z,20.70
2022-07-25T16:20:07.259Z,20.70
2022-07-25T16:22:34.663Z,20.70
2022-07-25T16:25:03.220Z,20.70
2022-07-25T16:27:30.353Z,20.60
2022-07-25T16:29:57.364Z,20.60
2022-07-25T16:32:24.615Z,20.70
2022-07-25T16:34:51.567Z,20.70
2022-07-25T16:37:19.665Z,20.70
2022-07-25T16:39:46.587Z,20.70
2022-07-25T16:42:13.504Z,20.80
2022-07-25T16:44:40.408Z,20.80
2022-07-25T16:47:07.657Z,20.80
2022-07-25T16:49:34.666Z,20.80
2022-07-25T16:52:01.618Z,20.80
2022-07-25T16:54:29.873Z,20.70
2022-07-25T16:56:59.655Z,20.70
2022-07-25T16:59:26.972Z,20.60
2022-07-25T17:01:54.061Z,20.60
2022-07-25T17:04:21.227Z,20.50
2022-07-25T17:06:49.266Z,20.50
2022-07-25T17:09:17.056Z,20.40
2022-07-25T17:11:44.241Z,20.40
2022-07-25T17:14:11.291Z,20.40
2022-07-25T17:16:39.706Z,20.40
2022-07-25T17:19:07.084Z,20.30
2022-07-25T17:21:34.237Z,20.30
2022-07-25T17:24:01.235Z,20.20
2022-07-25T17:26:28.375Z,20.20
2022-07-25T17:28:55.681Z,20.20
2022-07-25T17:31:24.526Z,20.20
2022-07-25T17:33:51.641Z,20.30
2022-07-25T17:36:19.286Z,20.30
2022-07-25T17:38:46.332Z,20.30
2022-07-25T17:41:13.335Z,20.40
2022-07-25T17:43:40.802Z,20.40
2022-07-25T17:46:11.060Z,20.40
2022-07-25T17:48:38.229Z,20.50
2022-07-25T17:51:06.259Z,20.50
2022-07-25T17:53:33.224Z,20.50
2022-07-25T17:56:01.006Z,20.50
2022-07-25T17:58:27.989Z,20.50
2022-07-25T18:00:59.522Z,20.50
2022-07-25T18:03:28.024Z,20.50
2022-07-25T18:05:55.995Z,20.50
2022-07-25T18:08:22.940Z,20.50
2022-07-25T18:10:50.489Z,20.50
2022-07-25T18:13:18.122Z,20.50
2022-07-25T18:15:45.871Z,20.40
2022-07-25T18:18:16.998Z,20.40
2022-07-25T18:20:47.407Z,20.30
2022-07-25T18:23:14.350Z,20.30
2022-07-25T18:25:41.247Z,20.30
2022-07-25T18:28:08.123Z,20.40
2022-07-25T18:30:35.203Z,20.40
2022-07-25T18:33:02.057Z,20.40
2022-07-25T18:35:29.221Z,20.30
2022-07-25T18:37:56.277Z,20.20
2022-07-25T18:40:23.379Z,20.20
2022-07-25T18:42:50.305Z,20.10
2022-07-25T18:45:17.239Z,20.10
2022-07-25T18:47:46.664Z,20.20
2022-07-25T18:50:13.679Z,20.20
2022-07-25T18:52:40.611Z,20.20
2022-07-25T18:55:09.110Z,20.20
2022-07-25T18:57:36.044Z,20.10
2022-07-25T19:00:03.789Z,20.10
2022-07-25T19:02:30.850Z,20.20
2022-07-25T19:04:57.903Z,20.10
2022-07-25T19:07:26.181Z,20.10
2022-07-25T19:09:53.222Z,20.10
2022-07-25T19:12:20.248Z,20.10
2022-07-25T19:14:47.167Z,20.00
2022-07-25T19:17:14.183Z,19.90
2022-07-25T19:19:41.456Z,19.90
2022-07-25T19:22:08.485Z,19.90
2022-07-25T19:24:35.434Z,19.90
2022-07-25T19:27:04.100Z,19.80
2022-07-25T19:29:31.339Z,19.80
2022-07-25T19:31:58.473Z,19.70
2022-07-25T19:34:25.523Z,19.70
2022-07-25T19:36:52.505Z,19.70
2022-07-25T19:39:19.454Z,19.70
2022-07-25T19:41:48.529Z,19.60
2022-07-25T19:44:15.558Z,19.60
2022-07-25T19:46:42.778Z,19.60
2022-07-25T19:49:09.822Z,19.60
2022-07-25T19:51:36.878Z,19.60
2022-07-25T19:54:04.150Z,19.60
2022-07-25T19:56:31.789Z,19.70
2022-07-25T19:58:58.745Z,19.70
2022-07-25T20:01:25.903Z,19.70
2022-07-25T20:03:52.832Z,19.60
2022-07-25T20:06:22.615Z,19.70
2022-07-25T20:08:49.580Z,19.70
2022-07-25T20:11:16.730Z,19.60
2022-07-25T20:13:43.779Z,19.60
2022-07-25T20:16:10.872Z,19.60
2022-07-25T20:18:37.813Z,19.60
2022-07-25T20:21:05.343Z,19.60
2022-07-25T20:23:32.470Z,19.70
2022-07-25T20:26:00.750Z,19.70
2022-07-25T20:28:27.778Z,19.60
2022-07-25T20:30:56.110Z,19.70
2022-07-25T20:33:27.068Z,19.70
2022-07-25T20:35:55.007Z,19.70
2022-07-25T20:38:22.437Z,19.70
2022-07-25T20:40:50.059Z,19.70
2022-07-25T20:43:17.242Z,19.70
2022-07-25T20:45:44.333Z,19.70
2022-07-25T20:48:11.500Z,19.70
2022-07-25T20:50:38.529Z,19.70
2022-07-25T20:53:06.193Z,19.60
2022-07-25T20:55:33.569Z,19.60
2022-07-25T20:58:01.122Z,19.60
2022-07-25T21:00:30.475Z,19.60
2022-07-25T21:02:58.265Z,19.60
2022-07-25T21:05:25.682Z,19.60
2022-07-25T21:07:52.998Z,19.60
2022-07-25T21:10:20.290Z,19.50
2022-07-25T21:12:47.334Z,19.50
2022-07-25T21:15:14.731Z,19.40
2022-07-25T21:17:44.465Z,19.30
2022-07-25T21:20:12.433Z,19.30
2022-07-25T21:22:39.550Z,19.30
2022-07-25T21:25:07.297Z,19.30
2022-07-25T21:27:34.380Z,19.30
2022-07-25T21:30:01.519Z,19.30
2022-07-25T21:32:28.535Z,19.40
2022-07-25T21:34:55.522Z,19.40
2022-07-25T21:37:22.547Z,19.30
2022-07-25T21:39:49.525Z,19.30
2022-07-25T21:42:16.527Z,19.30
2022-07-25T21:44:43.936Z,19.30
2022-07-25T21:47:11.681Z,19.30
2022-07-25T21:49:57.130Z,19.30
2022-07-25T21:52:30.280Z,19.30
2022-07-25T21:55:05.563Z,19.20
2022-07-25T21:57:32.641Z,19.10
2022-07-25T21:59:59.706Z,19.10
2022-07-25T22:02:26.741Z,19.00
2022-07-25T22:04:53.677Z,18.90
2022-07-25T22:07:20.782Z,18.90
2022-07-25T22:09:47.734Z,18.90
2022-07-25T22:12:15.126Z,18.90
2022-07-25T22:14:42.278Z,18.90
2022-07-25T22:17:09.555Z,18.90
2022-07-25T22:19:36.478Z,18.90
2022-07-25T22:22:05.162Z,18.80
2022-07-25T22:24:32.320Z,18.80
2022-07-25T22:26:59.467Z,18.80
2022-07-25T22:29:26.390Z,18.70
2022-07-25T22:31:53.455Z,18.70
2022-07-25T22:34:20.422Z,18.70
2022-07-25T22:36:47.365Z,18.70
2022-07-25T22:39:14.451Z,18.60
2022-07-25T22:41:41.366Z,18.60
2022-07-25T22:44:08.278Z,18.60
2022-07-25T22:46:35.207Z,18.60
2022-07-25T22:49:02.313Z,18.50
2022-07-25T22:51:29.875Z,18.50
2022-07-25T22:54:00.083Z,18.50
2022-07-25T22:56:27.413Z,18.50
2022-07-25T22:58:54.326Z,18.50
2022-07-25T23:01:21.802Z,18.40
2022-07-25T23:03:51.777Z,18.40
2022-07-25T23:06:19.881Z,18.40
2022-07-25T23:08:47.032Z,18.40
2022-07-25T23:11:14.149Z,18.40
2022-07-25T23:13:41.188Z,18.50
2022-07-25T23:16:10.238Z,18.50
2022-07-25T23:18:37.980Z,18.50
2022-07-25T23:21:05.062Z,18.50
2022-07-25T23:23:34.088Z,18.50
2022-07-25T23:26:01.236Z,18.50
2022-07-25T23:28:28.146Z,18.50
2022-07-25T23:30:55.727Z,18.50
2022-07-25T23:33:25.144Z,18.50
2022-07-25T23:35:53.331Z,18.60
2022-07-25T23:38:20.623Z,18.60
2022-07-25T23:40:47.626Z,18.50
2022-07-25T23:43:15.175Z,18.40
2022-07-25T23:45:58.913Z,18.40
2022-07-25T23:48:27.950Z,18.40
2022-07-25T23:50:54.939Z,18.30
2022-07-25T23:53:21.936Z,18.20
2022-07-25T23:55:48.866Z,18.20
2022-07-25T23:58:16.076Z,18.20
